KQAZ

Agadez

Agadez, Niger
METAR KQAZ 162356Z AUTO 08008G20KT 040V100 8000 HZ CLR 18/M05 A3010 RMK AO2 SLP213 WND DATA ESTMD T01791049 10223 20178 58005
Observed Flight Rules
Dec-16 @ 23:56 UTC (38 minutes ago) Marginal Visual Flight Rules
Wind Visibility Clouds Conditions
80° at 8 knots
 Gusting to 20 knots
7,998 meters
  • Clear skies
  • Haze
Temperatures Readings
Current 18°C / 64°F
Dewpoint -5°C / 23°F
Humidity 21%
Altimeter 30.1" Hg
Pressure 1021.3 hPa
METAR KQAZ 162356Z AUTO 08008G20KT 040V100 8000 HZ CLR 18/M05 A3010 RMK AO2 SLP213 WND DATA ESTMD T01791049 10223 20178 58005
Observed Flight Rules
Dec-16 @ 23:56 UTC
(38 minutes ago)
MVFR
Wind Visibility
80° at 8 knots
 Gusting to 20 knots
7,998 meters
Clouds
  • Clear skies
Conditions
  • Haze
Temperature Dewpoint
18°C / 64°F -5°C / 23°F
Humidity Altimeter Pressure
21% 30.1" Hg 1021.3 hPa